sensor_id;sensor_type;location;lat;lon;timestamp;pressure;altitude;pressure_sealevel;temperature;humidity
29169;BME280;16219;42.864;23.360;2023-01-30T00:00:23;96138.69;;;0.17;100.00
29169;BME280;16219;42.864;23.360;2023-01-30T00:02:51;96147.97;;;0.30;100.00
29169;BME280;16219;42.864;23.360;2023-01-30T00:05:18;96165.22;;;0.19;100.00
29169;BME280;16219;42.864;23.360;2023-01-30T00:07:45;96150.50;;;0.24;100.00
29169;BME280;16219;42.864;23.360;2023-01-30T00:10:12;96155.47;;;0.26;100.00
29169;BME280;16219;42.864;23.360;2023-01-30T00:12:39;96151.91;;;0.15;100.00
29169;BME280;16219;42.864;23.360;2023-01-30T00:15:07;96154.44;;;0.10;100.00
29169;BME280;16219;42.864;23.360;2023-01-30T00:17:34;96145.69;;;0.16;100.00
29169;BME280;16219;42.864;23.360;2023-01-30T00:20:04;96147.19;;;0.29;100.00
29169;BME280;16219;42.864;23.360;2023-01-30T00:22:31;96131.88;;;0.28;100.00
29169;BME280;16219;42.864;23.360;2023-01-30T00:24:58;96123.31;;;0.27;100.00
29169;BME280;16219;42.864;23.360;2023-01-30T00:27:25;96141.22;;;0.29;100.00
29169;BME280;16219;42.864;23.360;2023-01-30T00:29:51;96131.47;;;0.19;100.00
29169;BME280;16219;42.864;23.360;2023-01-30T00:32:18;96125.91;;;0.10;100.00
29169;BME280;16219;42.864;23.360;2023-01-30T00:34:45;96117.41;;;0.15;100.00
29169;BME280;16219;42.864;23.360;2023-01-30T00:37:14;96125.66;;;0.12;100.00
29169;BME280;16219;42.864;23.360;2023-01-30T00:39:41;96134.06;;;0.02;100.00
29169;BME280;16219;42.864;23.360;2023-01-30T00:42:08;96123.44;;;0.04;100.00
29169;BME280;16219;42.864;23.360;2023-01-30T00:44:52;96124.66;;;0.13;100.00
29169;BME280;16219;42.864;23.360;2023-01-30T00:47:37;96115.84;;;-0.03;100.00
29169;BME280;16219;42.864;23.360;2023-01-30T00:50:05;96114.66;;;0.21;100.00
29169;BME280;16219;42.864;23.360;2023-01-30T00:52:33;96128.31;;;0.17;100.00
29169;BME280;16219;42.864;23.360;2023-01-30T00:55:00;96117.34;;;0.10;100.00
29169;BME280;16219;42.864;23.360;2023-01-30T00:57:27;96118.97;;;0.16;100.00
29169;BME280;16219;42.864;23.360;2023-01-30T00:59:55;96120.97;;;0.09;100.00
29169;BME280;16219;42.864;23.360;2023-01-30T01:02:22;96118.19;;;0.15;100.00
29169;BME280;16219;42.864;23.360;2023-01-30T01:04:51;96115.06;;;0.13;100.00
29169;BME280;16219;42.864;23.360;2023-01-30T01:07:18;96117.94;;;0.17;100.00
29169;BME280;16219;42.864;23.360;2023-01-30T01:09:46;96119.03;;;0.21;100.00
29169;BME280;16219;42.864;23.360;2023-01-30T01:12:13;96114.56;;;0.33;100.00
29169;BME280;16219;42.864;23.360;2023-01-30T01:14:41;96116.94;;;0.18;100.00
29169;BME280;16219;42.864;23.360;2023-01-30T01:17:08;96110.72;;;0.02;100.00
29169;BME280;16219;42.864;23.360;2023-01-30T01:19:35;96108.19;;;-0.10;100.00
29169;BME280;16219;42.864;23.360;2023-01-30T01:22:02;96112.34;;;-0.09;100.00
29169;BME280;16219;42.864;23.360;2023-01-30T01:24:29;96108.75;;;-0.08;100.00
29169;BME280;16219;42.864;23.360;2023-01-30T01:26:57;96104.41;;;-0.19;100.00
29169;BME280;16219;42.864;23.360;2023-01-30T01:29:24;96097.97;;;-0.33;100.00
29169;BME280;16219;42.864;23.360;2023-01-30T01:31:52;96110.06;;;-0.22;100.00
29169;BME280;16219;42.864;23.360;2023-01-30T01:34:19;96103.88;;;-0.21;100.00
29169;BME280;16219;42.864;23.360;2023-01-30T01:36:47;96105.91;;;-0.23;100.00
29169;BME280;16219;42.864;23.360;2023-01-30T01:39:15;96112.91;;;-0.23;100.00
29169;BME280;16219;42.864;23.360;2023-01-30T01:41:42;96109.13;;;-0.16;100.00
29169;BME280;16219;42.864;23.360;2023-01-30T01:44:10;96114.69;;;-0.24;100.00
29169;BME280;16219;42.864;23.360;2023-01-30T01:46:41;96100.38;;;-0.27;100.00
29169;BME280;16219;42.864;23.360;2023-01-30T01:49:13;96084.50;;;-0.30;100.00
29169;BME280;16219;42.864;23.360;2023-01-30T01:51:46;96104.75;;;-0.15;100.00
29169;BME280;16219;42.864;23.360;2023-01-30T01:54:18;96102.16;;;-0.15;100.00
29169;BME280;16219;42.864;23.360;2023-01-30T01:56:48;96097.66;;;-0.20;100.00
29169;BME280;16219;42.864;23.360;2023-01-30T01:59:23;96096.22;;;-0.28;100.00
29169;BME280;16219;42.864;23.360;2023-01-30T02:01:53;96097.00;;;-0.27;100.00
29169;BME280;16219;42.864;23.360;2023-01-30T02:04:21;96090.59;;;-0.24;100.00
29169;BME280;16219;42.864;23.360;2023-01-30T02:07:03;96086.09;;;-0.29;100.00
29169;BME280;16219;42.864;23.360;2023-01-30T02:09:30;96088.59;;;-0.34;100.00
29169;BME280;16219;42.864;23.360;2023-01-30T02:11:59;96087.09;;;-0.30;100.00
29169;BME280;16219;42.864;23.360;2023-01-30T02:14:33;96077.22;;;-0.33;100.00
29169;BME280;16219;42.864;23.360;2023-01-30T02:17:00;96083.50;;;-0.29;100.00
29169;BME280;16219;42.864;23.360;2023-01-30T02:19:33;96076.97;;;-0.32;100.00
29169;BME280;16219;42.864;23.360;2023-01-30T02:22:16;96072.75;;;-0.38;100.00
29169;BME280;16219;42.864;23.360;2023-01-30T02:25:09;96077.03;;;-0.43;100.00
29169;BME280;16219;42.864;23.360;2023-01-30T02:28:05;96075.22;;;-0.43;100.00
29169;BME280;16219;42.864;23.360;2023-01-30T02:30:56;96068.56;;;-0.39;100.00
29169;BME280;16219;42.864;23.360;2023-01-30T02:33:35;96062.13;;;-0.36;100.00
29169;BME280;16219;42.864;23.360;2023-01-30T02:36:11;96054.44;;;-0.31;100.00
29169;BME280;16219;42.864;23.360;2023-01-30T02:38:45;96059.94;;;-0.28;100.00
29169;BME280;16219;42.864;23.360;2023-01-30T02:41:23;96045.88;;;-0.32;100.00
29169;BME280;16219;42.864;23.360;2023-01-30T02:44:01;96056.00;;;-0.13;100.00
29169;BME280;16219;42.864;23.360;2023-01-30T02:46:38;96047.38;;;-0.19;100.00
29169;BME280;16219;42.864;23.360;2023-01-30T02:49:14;96050.91;;;-0.25;100.00
29169;BME280;16219;42.864;23.360;2023-01-30T02:51:43;96053.81;;;-0.05;100.00
29169;BME280;16219;42.864;23.360;2023-01-30T02:54:13;96049.00;;;-0.13;100.00
29169;BME280;16219;42.864;23.360;2023-01-30T02:56:44;96059.94;;;-0.11;100.00
29169;BME280;16219;42.864;23.360;2023-01-30T02:59:13;96062.94;;;-0.19;100.00
29169;BME280;16219;42.864;23.360;2023-01-30T03:02:04;96060.66;;;-0.32;100.00
29169;BME280;16219;42.864;23.360;2023-01-30T03:04:48;96052.31;;;-0.34;100.00
29169;BME280;16219;42.864;23.360;2023-01-30T03:07:26;96064.34;;;-0.28;100.00
29169;BME280;16219;42.864;23.360;2023-01-30T03:10:01;96052.88;;;-0.32;100.00
29169;BME280;16219;42.864;23.360;2023-01-30T03:12:40;96048.47;;;-0.32;100.00
29169;BME280;16219;42.864;23.360;2023-01-30T03:15:18;96045.78;;;-0.37;100.00
29169;BME280;16219;42.864;23.360;2023-01-30T03:17:51;96035.81;;;-0.28;100.00
29169;BME280;16219;42.864;23.360;2023-01-30T03:20:20;96039.03;;;-0.38;100.00
29169;BME280;16219;42.864;23.360;2023-01-30T03:22:47;96034.06;;;-0.39;100.00
29169;BME280;16219;42.864;23.360;2023-01-30T03:25:18;96038.22;;;-0.38;100.00
29169;BME280;16219;42.864;23.360;2023-01-30T03:27:47;96031.41;;;-0.44;100.00
29169;BME280;16219;42.864;23.360;2023-01-30T03:30:17;96031.16;;;-0.43;100.00
29169;BME280;16219;42.864;23.360;2023-01-30T03:32:44;96030.88;;;-0.46;100.00
29169;BME280;16219;42.864;23.360;2023-01-30T03:35:14;96031.97;;;-0.42;100.00
29169;BME280;16219;42.864;23.360;2023-01-30T03:37:42;96023.19;;;-0.41;100.00
29169;BME280;16219;42.864;23.360;2023-01-30T03:40:11;96020.97;;;-0.33;100.00
29169;BME280;16219;42.864;23.360;2023-01-30T03:42:39;96028.50;;;-0.31;100.00
29169;BME280;16219;42.864;23.360;2023-01-30T03:45:08;96022.69;;;-0.38;100.00
29169;BME280;16219;42.864;23.360;2023-01-30T03:47:36;96020.66;;;-0.36;100.00
29169;BME280;16219;42.864;23.360;2023-01-30T03:50:05;96011.84;;;-0.35;100.00
29169;BME280;16219;42.864;23.360;2023-01-30T03:52:35;96016.50;;;-0.37;100.00
29169;BME280;16219;42.864;23.360;2023-01-30T03:55:02;96015.94;;;-0.39;100.00
29169;BME280;16219;42.864;23.360;2023-01-30T03:57:30;96009.31;;;-0.47;100.00
29169;BME280;16219;42.864;23.360;2023-01-30T03:59:58;96022.44;;;-0.54;100.00
29169;BME280;16219;42.864;23.360;2023-01-30T04:02:25;95994.88;;;-0.60;100.00
29169;BME280;16219;42.864;23.360;2023-01-30T04:04:53;96009.03;;;-0.51;100.00
29169;BME280;16219;42.864;23.360;2023-01-30T04:07:20;96013.66;;;-0.53;100.00
29169;BME280;16219;42.864;23.360;2023-01-30T04:09:51;96015.38;;;-0.58;100.00
29169;BME280;16219;42.864;23.360;2023-01-30T04:12:19;96017.66;;;-0.62;100.00
29169;BME280;16219;42.864;23.360;2023-01-30T04:14:52;96017.72;;;-0.57;100.00
29169;BME280;16219;42.864;23.360;2023-01-30T04:17:41;96014.03;;;-0.61;100.00
29169;BME280;16219;42.864;23.360;2023-01-30T04:20:21;96017.19;;;-0.59;100.00
29169;BME280;16219;42.864;23.360;2023-01-30T04:22:53;96000.22;;;-0.66;100.00
29169;BME280;16219;42.864;23.360;2023-01-30T04:25:22;96009.03;;;-0.51;100.00
29169;BME280;16219;42.864;23.360;2023-01-30T04:27:49;96012.00;;;-0.59;100.00
29169;BME280;16219;42.864;23.360;2023-01-30T04:30:20;96007.03;;;-0.60;100.00
29169;BME280;16219;42.864;23.360;2023-01-30T04:32:51;96005.72;;;-0.63;100.00
29169;BME280;16219;42.864;23.360;2023-01-30T04:35:18;96007.75;;;-0.65;100.00
29169;BME280;16219;42.864;23.360;2023-01-30T04:37:45;96007.59;;;-0.75;100.00
29169;BME280;16219;42.864;23.360;2023-01-30T04:40:17;96007.59;;;-0.75;100.00
29169;BME280;16219;42.864;23.360;2023-01-30T04:42:46;96007.34;;;-0.73;100.00
29169;BME280;16219;42.864;23.360;2023-01-30T04:45:49;95997.75;;;-0.73;100.00
29169;BME280;16219;42.864;23.360;2023-01-30T04:48:17;95992.81;;;-0.74;100.00
29169;BME280;16219;42.864;23.360;2023-01-30T04:50:47;95995.16;;;-0.73;100.00
29169;BME280;16219;42.864;23.360;2023-01-30T04:53:16;95993.94;;;-0.70;100.00
29169;BME280;16219;42.864;23.360;2023-01-30T04:55:43;95987.88;;;-0.76;100.00
29169;BME280;16219;42.864;23.360;2023-01-30T04:58:12;95991.59;;;-0.72;100.00
29169;BME280;16219;42.864;23.360;2023-01-30T05:00:39;95988.19;;;-0.72;100.00
29169;BME280;16219;42.864;23.360;2023-01-30T05:03:06;95993.94;;;-0.70;100.00
29169;BME280;16219;42.864;23.360;2023-01-30T05:05:33;95986.84;;;-0.75;100.00
29169;BME280;16219;42.864;23.360;2023-01-30T05:08:00;95994.06;;;-0.77;100.00
29169;BME280;16219;42.864;23.360;2023-01-30T05:10:27;95983.69;;;-0.77;100.00
29169;BME280;16219;42.864;23.360;2023-01-30T05:12:54;95985.59;;;-0.72;100.00
29169;BME280;16219;42.864;23.360;2023-01-30T05:15:22;95982.22;;;-0.73;100.00
29169;BME280;16219;42.864;23.360;2023-01-30T05:17:49;95982.94;;;-0.61;100.00
29169;BME280;16219;42.864;23.360;2023-01-30T05:20:17;95980.13;;;-0.59;100.00
29169;BME280;16219;42.864;23.360;2023-01-30T05:22:44;95981.50;;;-0.68;100.00
29169;BME280;16219;42.864;23.360;2023-01-30T05:25:11;95987.97;;;-0.71;100.00
29169;BME280;16219;42.864;23.360;2023-01-30T05:27:38;95980.56;;;-0.79;100.00
29169;BME280;16219;42.864;23.360;2023-01-30T05:30:06;95985.44;;;-0.66;100.00
29169;BME280;16219;42.864;23.360;2023-01-30T05:32:35;95970.13;;;-0.84;100.00
29169;BME280;16219;42.864;23.360;2023-01-30T05:35:02;95998.16;;;-0.64;100.00
29169;BME280;16219;42.864;23.360;2023-01-30T05:37:29;95994.94;;;-0.71;100.00
29169;BME280;16219;42.864;23.360;2023-01-30T05:39:55;95995.28;;;-0.68;100.00
29169;BME280;16219;42.864;23.360;2023-01-30T05:42:23;95978.44;;;-0.82;100.00
29169;BME280;16219;42.864;23.360;2023-01-30T05:44:50;96003.06;;;-0.68;100.00
29169;BME280;16219;42.864;23.360;2023-01-30T05:47:17;96004.13;;;-0.64;100.00
29169;BME280;16219;42.864;23.360;2023-01-30T05:49:45;96002.94;;;-0.73;100.00
29169;BME280;16219;42.864;23.360;2023-01-30T05:52:12;96001.00;;;-0.66;100.00
29169;BME280;16219;42.864;23.360;2023-01-30T05:54:39;95995.81;;;-0.66;100.00
29169;BME280;16219;42.864;23.360;2023-01-30T05:57:06;96004.38;;;-0.65;100.00
29169;BME280;16219;42.864;23.360;2023-01-30T05:59:33;95994.31;;;-0.62;100.00
29169;BME280;16219;42.864;23.360;2023-01-30T06:02:00;96003.13;;;-0.63;100.00
29169;BME280;16219;42.864;23.360;2023-01-30T06:04:27;96003.34;;;-0.64;100.00
29169;BME280;16219;42.864;23.360;2023-01-30T06:06:56;96000.22;;;-0.66;100.00
29169;BME280;16219;42.864;23.360;2023-01-30T06:09:23;95998.94;;;-0.64;100.00
29169;BME280;16219;42.864;23.360;2023-01-30T06:11:50;96001.78;;;-0.65;100.00
29169;BME280;16219;42.864;23.360;2023-01-30T06:14:20;95996.47;;;-0.59;100.00
29169;BME280;16219;42.864;23.360;2023-01-30T06:16:47;95998.03;;;-0.58;100.00
29169;BME280;16219;42.864;23.360;2023-01-30T06:19:14;95997.56;;;-0.55;100.00
29169;BME280;16219;42.864;23.360;2023-01-30T06:21:41;95999.38;;;-0.55;100.00
29169;BME280;16219;42.864;23.360;2023-01-30T06:24:09;96005.88;;;-0.53;100.00
29169;BME280;16219;42.864;23.360;2023-01-30T06:26:36;96002.97;;;-0.56;100.00
29169;BME280;16219;42.864;23.360;2023-01-30T06:29:03;96005.81;;;-0.58;100.00
29169;BME280;16219;42.864;23.360;2023-01-30T06:31:30;96004.78;;;-0.57;100.00
29169;BME280;16219;42.864;23.360;2023-01-30T06:33:57;96005.88;;;-0.53;100.00
29169;BME280;16219;42.864;23.360;2023-01-30T06:36:24;96002.75;;;-0.55;100.00
29169;BME280;16219;42.864;23.360;2023-01-30T06:38:52;96009.03;;;-0.51;100.00
29169;BME280;16219;42.864;23.360;2023-01-30T06:41:20;96008.00;;;-0.49;100.00
29169;BME280;16219;42.864;23.360;2023-01-30T06:43:47;96006.66;;;-0.52;100.00
29169;BME280;16219;42.864;23.360;2023-01-30T06:46:14;95998.50;;;-0.44;100.00
29169;BME280;16219;42.864;23.360;2023-01-30T06:48:41;95996.31;;;-0.35;100.00
29169;BME280;16219;42.864;23.360;2023-01-30T06:51:09;96000.47;;;-0.34;100.00
29169;BME280;16219;42.864;23.360;2023-01-30T06:53:36;95999.59;;;-0.23;100.00
29169;BME280;16219;42.864;23.360;2023-01-30T06:56:03;95993.25;;;-0.32;100.00
29169;BME280;16219;42.864;23.360;2023-01-30T06:58:32;95998.13;;;-0.19;100.00
29169;BME280;16219;42.864;23.360;2023-01-30T07:00:59;96008.56;;;-0.14;100.00
29169;BME280;16219;42.864;23.360;2023-01-30T07:03:27;96008.09;;;-0.11;100.00
29169;BME280;16219;42.864;23.360;2023-01-30T07:05:54;96011.38;;;-0.15;100.00
29169;BME280;16219;42.864;23.360;2023-01-30T07:08:21;96010.16;;;-0.30;100.00
29169;BME280;16219;42.864;23.360;2023-01-30T07:10:48;96012.41;;;-0.33;100.00
29169;BME280;16219;42.864;23.360;2023-01-30T07:13:15;96006.59;;;-0.40;100.00
29169;BME280;16219;42.864;23.360;2023-01-30T07:15:43;96011.38;;;-0.32;100.00
29169;BME280;16219;42.864;23.360;2023-01-30T07:18:10;96007.44;;;-0.35;100.00
29169;BME280;16219;42.864;23.360;2023-01-30T07:20:37;96009.34;;;-0.30;100.00
29169;BME280;16219;42.864;23.360;2023-01-30T07:23:04;96008.72;;;-0.20;100.00
29169;BME280;16219;42.864;23.360;2023-01-30T07:25:31;96015.00;;;-0.16;100.00
29169;BME280;16219;42.864;23.360;2023-01-30T07:27:59;96021.53;;;-0.14;100.00
29169;BME280;16219;42.864;23.360;2023-01-30T07:30:28;96022.09;;;-0.12;100.00
29169;BME280;16219;42.864;23.360;2023-01-30T07:32:58;96021.84;;;-0.10;100.00
29169;BME280;16219;42.864;23.360;2023-01-30T07:35:27;96015.41;;;-0.08;100.00
29169;BME280;16219;42.864;23.360;2023-01-30T07:37:54;96017.81;;;-0.01;100.00
29169;BME280;16219;42.864;23.360;2023-01-30T07:40:21;96011.22;;;-0.09;100.00
29169;BME280;16219;42.864;23.360;2023-01-30T07:42:59;96010.94;;;-0.12;100.00
29169;BME280;16219;42.864;23.360;2023-01-30T07:45:28;96005.66;;;-0.17;100.00
29169;BME280;16219;42.864;23.360;2023-01-30T07:47:57;96012.31;;;-0.05;100.00
29169;BME280;16219;42.864;23.360;2023-01-30T07:50:25;96003.38;;;-0.14;100.00
29169;BME280;16219;42.864;23.360;2023-01-30T07:52:52;95999.75;;;-0.13;100.00
29169;BME280;16219;42.864;23.360;2023-01-30T07:55:19;96009.13;;;-0.12;100.00
29169;BME280;16219;42.864;23.360;2023-01-30T07:57:46;95997.78;;;-0.22;100.00
29169;BME280;16219;42.864;23.360;2023-01-30T08:00:14;95999.84;;;-0.24;100.00
29169;BME280;16219;42.864;23.360;2023-01-30T08:02:41;95997.88;;;-0.34;100.00
29169;BME280;16219;42.864;23.360;2023-01-30T08:05:10;95999.53;;;-0.28;100.00
29169;BME280;16219;42.864;23.360;2023-01-30T08:07:37;96002.91;;;-0.28;100.00
29169;BME280;16219;42.864;23.360;2023-01-30T08:10:04;95995.19;;;-0.22;100.00
29169;BME280;16219;42.864;23.360;2023-01-30T08:12:31;96005.34;;;-0.21;100.00
29169;BME280;16219;42.864;23.360;2023-01-30T08:14:58;96008.56;;;-0.14;100.00
29169;BME280;16219;42.864;23.360;2023-01-30T08:17:25;96004.72;;;-0.11;100.00
29169;BME280;16219;42.864;23.360;2023-01-30T08:19:53;95983.13;;;-0.17;100.00
29169;BME280;16219;42.864;23.360;2023-01-30T08:22:21;95985.44;;;0.02;100.00
29169;BME280;16219;42.864;23.360;2023-01-30T08:24:48;95988.41;;;0.10;100.00
29169;BME280;16219;42.864;23.360;2023-01-30T08:27:15;95991.50;;;0.29;100.00
29169;BME280;16219;42.864;23.360;2023-01-30T08:29:42;95996.16;;;0.27;100.00
29169;BME280;16219;42.864;23.360;2023-01-30T08:32:10;95983.19;;;0.27;100.00
29169;BME280;16219;42.864;23.360;2023-01-30T08:34:37;95976.56;;;0.36;100.00
29169;BME280;16219;42.864;23.360;2023-01-30T08:37:04;95983.56;;;0.58;100.00
29169;BME280;16219;42.864;23.360;2023-01-30T08:39:32;95983.16;;;0.66;100.00
29169;BME280;16219;42.864;23.360;2023-01-30T08:41:59;95979.53;;;0.67;100.00
29169;BME280;16219;42.864;23.360;2023-01-30T08:44:26;95986.22;;;0.63;100.00
29169;BME280;16219;42.864;23.360;2023-01-30T08:46:53;95985.84;;;0.76;100.00
29169;BME280;16219;42.864;23.360;2023-01-30T08:49:20;95984.91;;;0.82;100.00
29169;BME280;16219;42.864;23.360;2023-01-30T08:51:47;95974.38;;;0.72;100.00
29169;BME280;16219;42.864;23.360;2023-01-30T08:54:14;95973.59;;;0.71;100.00
29169;BME280;16219;42.864;23.360;2023-01-30T08:56:43;95975.47;;;0.76;100.00
29169;BME280;16219;42.864;23.360;2023-01-30T08:59:10;95965.69;;;0.61;100.00
29169;BME280;16219;42.864;23.360;2023-01-30T09:01:37;95973.97;;;0.58;100.00
29169;BME280;16219;42.864;23.360;2023-01-30T09:04:04;95982.47;;;0.54;100.00
29169;BME280;16219;42.864;23.360;2023-01-30T09:06:31;95983.88;;;0.61;100.00
29169;BME280;16219;42.864;23.360;2023-01-30T09:08:59;95972.72;;;0.39;100.00
29169;BME280;16219;42.864;23.360;2023-01-30T09:11:26;95972.41;;;0.35;100.00
29169;BME280;16219;42.864;23.360;2023-01-30T09:13:54;95958.13;;;0.16;100.00
29169;BME280;16219;42.864;23.360;2023-01-30T09:16:21;95976.66;;;0.24;100.00
29169;BME280;16219;42.864;23.360;2023-01-30T09:18:48;95977.16;;;0.21;100.00
29169;BME280;16219;42.864;23.360;2023-01-30T09:21:15;95970.56;;;0.14;100.00
29169;BME280;16219;42.864;23.360;2023-01-30T09:23:42;95970.31;;;0.15;100.00
29169;BME280;16219;42.864;23.360;2023-01-30T09:26:09;95970.78;;;0.12;100.00
29169;BME280;16219;42.864;23.360;2023-01-30T09:28:36;95963.25;;;0.11;100.00
29169;BME280;16219;42.864;23.360;2023-01-30T09:31:05;95957.63;;;-0.03;100.00
29169;BME280;16219;42.864;23.360;2023-01-30T09:33:32;95958.84;;;0.11;100.00
29169;BME280;16219;42.864;23.360;2023-01-30T09:35:59;95955.59;;;0.21;100.00
29169;BME280;16219;42.864;23.360;2023-01-30T09:38:26;95951.22;;;0.21;100.00
29169;BME280;16219;42.864;23.360;2023-01-30T09:43:49;95962.50;;;0.32;100.00
29169;BME280;16219;42.864;23.360;2023-01-30T09:46:32;95948.81;;;-0.02;100.00
29169;BME280;16219;42.864;23.360;2023-01-30T09:49:06;95953.06;;;-0.13;100.00
29169;BME280;16219;42.864;23.360;2023-01-30T09:51:43;95931.88;;;-0.27;100.00
29169;BME280;16219;42.864;23.360;2023-01-30T09:54:19;95938.16;;;-0.22;100.00
29169;BME280;16219;42.864;23.360;2023-01-30T09:57:10;95944.31;;;-0.29;100.00
29169;BME280;16219;42.864;23.360;2023-01-30T09:59:49;95937.56;;;-0.30;100.00
29169;BME280;16219;42.864;23.360;2023-01-30T10:02:36;95933.94;;;-0.29;100.00
29169;BME280;16219;42.864;23.360;2023-01-30T10:05:05;95930.31;;;-0.28;100.00
29169;BME280;16219;42.864;23.360;2023-01-30T10:07:56;95924.19;;;-0.21;100.00
29169;BME280;16219;42.864;23.360;2023-01-30T10:10:35;95924.41;;;-0.23;100.00
29169;BME280;16219;42.864;23.360;2023-01-30T10:13:09;95920.41;;;-0.14;100.00
29169;BME280;16219;42.864;23.360;2023-01-30T10:15:48;95915.78;;;-0.12;100.00
29169;BME280;16219;42.864;23.360;2023-01-30T10:18:38;95910.19;;;-0.04;100.00
29169;BME280;16219;42.864;23.360;2023-01-30T10:21:16;95905.59;;;0.04;100.00
29169;BME280;16219;42.864;23.360;2023-01-30T10:23:56;95899.91;;;0.07;100.00
29169;BME280;16219;42.864;23.360;2023-01-30T10:26:27;95895.72;;;0.22;100.00
29169;BME280;16219;42.864;23.360;2023-01-30T10:28:57;95889.53;;;0.07;100.00
29169;BME280;16219;42.864;23.360;2023-01-30T10:31:32;95893.34;;;-0.01;100.00
29169;BME280;16219;42.864;23.360;2023-01-30T10:34:05;95889.13;;;-0.07;100.00
29169;BME280;16219;42.864;23.360;2023-01-30T10:36:39;95875.75;;;0.01;100.00
29169;BME280;16219;42.864;23.360;2023-01-30T10:39:19;95870.06;;;0.04;100.00
29169;BME280;16219;42.864;23.360;2023-01-30T10:41:52;95859.50;;;0.11;100.00
29169;BME280;16219;42.864;23.360;2023-01-30T10:44:21;95861.72;;;0.24;100.00
29169;BME280;16219;42.864;23.360;2023-01-30T10:49:43;95851.63;;;0.49;100.00
29169;BME280;16219;42.864;23.360;2023-01-30T10:52:31;95852.69;;;0.54;100.00
29169;BME280;16219;42.864;23.360;2023-01-30T10:55:10;95845.94;;;0.26;100.00
29169;BME280;16219;42.864;23.360;2023-01-30T10:57:49;95833.00;;;0.31;100.00
29169;BME280;16219;42.864;23.360;2023-01-30T11:00:26;95833.06;;;0.36;100.00
29169;BME280;16219;42.864;23.360;2023-01-30T11:03:10;95820.16;;;0.19;100.00
29169;BME280;16219;42.864;23.360;2023-01-30T11:05:48;95804.13;;;0.22;100.00
29169;BME280;16219;42.864;23.360;2023-01-30T11:08:21;95797.94;;;0.28;100.00
29169;BME280;16219;42.864;23.360;2023-01-30T11:10:50;95799.03;;;0.32;100.00
29169;BME280;16219;42.864;23.360;2023-01-30T11:13:18;95783.72;;;0.31;100.00
29169;BME280;16219;42.864;23.360;2023-01-30T11:15:49;95792.03;;;0.33;100.00
29169;BME280;16219;42.864;23.360;2023-01-30T11:18:18;95784.53;;;0.36;100.00
29169;BME280;16219;42.864;23.360;2023-01-30T11:20:57;95774.47;;;0.40;100.00
29169;BME280;16219;42.864;23.360;2023-01-30T11:23:30;95767.00;;;0.48;100.00
29169;BME280;16219;42.864;23.360;2023-01-30T11:25:58;95747.84;;;0.55;100.00
29169;BME280;16219;42.864;23.360;2023-01-30T11:28:26;95776.06;;;0.78;100.00
29169;BME280;16219;42.864;23.360;2023-01-30T11:30:55;95773.91;;;0.65;100.00
29169;BME280;16219;42.864;23.360;2023-01-30T11:33:31;95766.41;;;0.68;100.00
29169;BME280;16219;42.864;23.360;2023-01-30T11:36:02;95767.97;;;0.69;100.00
29169;BME280;16219;42.864;23.360;2023-01-30T11:38:31;95760.41;;;0.68;100.00
29169;BME280;16219;42.864;23.360;2023-01-30T11:41:05;95754.28;;;0.47;100.00
29169;BME280;16219;42.864;23.360;2023-01-30T11:43:33;95743.94;;;0.52;100.00
29169;BME280;16219;42.864;23.360;2023-01-30T11:46:01;95729.63;;;0.49;100.00
29169;BME280;16219;42.864;23.360;2023-01-30T11:48:31;95735.88;;;0.48;100.00
29169;BME280;16219;42.864;23.360;2023-01-30T11:51:03;95739.94;;;0.39;100.00
29169;BME280;16219;42.864;23.360;2023-01-30T11:53:34;95735.72;;;0.33;100.00
29169;BME280;16219;42.864;23.360;2023-01-30T11:56:08;95721.94;;;0.60;100.00
29169;BME280;16219;42.864;23.360;2023-01-30T11:58:37;95714.41;;;0.63;100.00
29169;BME280;16219;42.864;23.360;2023-01-30T12:01:08;95706.22;;;0.77;100.00
29169;BME280;16219;42.864;23.360;2023-01-30T12:03:42;95700.06;;;0.88;100.00
29169;BME280;16219;42.864;23.360;2023-01-30T12:06:20;95698.19;;;0.83;100.00
29169;BME280;16219;42.864;23.360;2023-01-30T12:08:51;95691.50;;;0.92;100.00
29169;BME280;16219;42.864;23.360;2023-01-30T12:11:25;95684.88;;;1.17;100.00
29169;BME280;16219;42.864;23.360;2023-01-30T12:13:54;95688.22;;;1.07;100.00
29169;BME280;16219;42.864;23.360;2023-01-30T12:16:33;95685.66;;;1.17;100.00
29169;BME280;16219;42.864;23.360;2023-01-30T12:19:17;95673.41;;;1.03;100.00
29169;BME280;16219;42.864;23.360;2023-01-30T12:21:54;95678.38;;;0.67;100.00
29169;BME280;16219;42.864;23.360;2023-01-30T12:24:27;95671.72;;;0.81;100.00
29169;BME280;16219;42.864;23.360;2023-01-30T12:26:59;95673.84;;;0.89;100.00
29169;BME280;16219;42.864;23.360;2023-01-30T12:29:32;95654.31;;;0.82;100.00
29169;BME280;16219;42.864;23.360;2023-01-30T12:32:05;95662.31;;;0.75;100.00
29169;BME280;16219;42.864;23.360;2023-01-30T12:34:34;95657.25;;;0.95;100.00
29169;BME280;16219;42.864;23.360;2023-01-30T12:37:13;95647.94;;;1.10;100.00
29169;BME280;16219;42.864;23.360;2023-01-30T12:39:53;95643.59;;;1.20;100.00
29169;BME280;16219;42.864;23.360;2023-01-30T12:42:39;95639.72;;;1.28;100.00
29169;BME280;16219;42.864;23.360;2023-01-30T12:45:20;95636.13;;;1.44;100.00
29169;BME280;16219;42.864;23.360;2023-01-30T12:50:49;95636.44;;;1.53;100.00
29169;BME280;16219;42.864;23.360;2023-01-30T12:53:30;95634.84;;;1.57;100.00
29169;BME280;16219;42.864;23.360;2023-01-30T12:56:14;95630.19;;;1.49;100.00
29169;BME280;16219;42.864;23.360;2023-01-30T12:58:50;95632.25;;;1.47;100.00
29169;BME280;16219;42.864;23.360;2023-01-30T13:01:26;95632.41;;;1.20;100.00
29169;BME280;16219;42.864;23.360;2023-01-30T13:03:55;95621.25;;;1.19;100.00
29169;BME280;16219;42.864;23.360;2023-01-30T13:06:44;95621.47;;;1.08;100.00
29169;BME280;16219;42.864;23.360;2023-01-30T13:09:34;95620.97;;;1.16;100.00